createdAt,value
2023-03-31T00:01:15.295Z,101194.47
2023-03-31T00:03:44.815Z,101196.69
2023-03-31T00:06:18.706Z,101192.56
2023-03-31T00:08:52.502Z,101189.63
2023-03-31T00:11:22.572Z,101179.50
2023-03-31T00:13:51.161Z,101178.94
2023-03-31T00:16:19.344Z,101184.59
2023-03-31T00:18:50.902Z,101170.22
2023-03-31T00:21:33.971Z,101165.88
2023-03-31T00:24:07.343Z,101160.91
2023-03-31T00:26:35.751Z,101160.69
2023-03-31T00:29:08.513Z,101159.41
2023-03-31T00:31:36.511Z,101165.31
2023-03-31T00:34:04.121Z,101160.22
2023-03-31T00:36:36.866Z,101155.78
2023-03-31T00:39:09.779Z,101158.97
2023-03-31T00:41:39.519Z,101148.44
2023-03-31T00:44:24.919Z,101148.66
2023-03-31T00:46:55.929Z,101141.84
2023-03-31T00:49:36.601Z,101145.56
2023-03-31T00:52:13.579Z,101135.69
2023-03-31T00:54:44.744Z,101130.09
2023-03-31T00:57:13.821Z,101125.47
2023-03-31T00:59:49.774Z,101126.19
2023-03-31T01:02:20.822Z,101124.34
2023-03-31T01:04:55.794Z,101120.75
2023-03-31T01:07:33.703Z,101125.06
2023-03-31T01:10:05.245Z,101132.31
2023-03-31T01:12:37.205Z,101118.34
2023-03-31T01:15:07.485Z,101116.84
2023-03-31T01:17:35.949Z,101104.31
2023-03-31T01:20:12.130Z,101107.38
2023-03-31T01:23:05.569Z,101098.72
2023-03-31T01:25:52.657Z,101094.97
2023-03-31T01:28:26.821Z,101092.22
2023-03-31T01:31:13.546Z,101092.97
2023-03-31T01:33:58.879Z,101087.28
2023-03-31T01:37:03.334Z,101087.69
2023-03-31T01:39:45.918Z,101094.84
2023-03-31T01:42:33.530Z,101085.81
2023-03-31T01:45:08.658Z,101095.78
2023-03-31T01:47:50.935Z,101089.78
2023-03-31T01:50:28.294Z,101092.97
2023-03-31T01:53:15.331Z,101082.84
2023-03-31T01:56:04.573Z,101075.34
2023-03-31T01:58:39.158Z,101078.06
2023-03-31T02:01:38.098Z,101060.22
2023-03-31T02:04:21.727Z,101054.38
2023-03-31T02:06:59.409Z,101049.84
2023-03-31T02:09:34.460Z,101056.53
2023-03-31T02:12:06.737Z,101056.47
2023-03-31T02:14:41.257Z,101052.66
2023-03-31T02:17:18.225Z,101048.22
2023-03-31T02:19:52.285Z,101046.84
2023-03-31T02:22:22.391Z,101036.03
2023-03-31T02:24:52.979Z,101028.47
2023-03-31T02:27:35.798Z,101037.94
2023-03-31T02:30:04.736Z,101045.28
2023-03-31T02:32:40.678Z,101039.28
2023-03-31T02:35:13.302Z,101040.22
2023-03-31T02:37:42.489Z,101040.56
2023-03-31T02:40:17.147Z,101042.13
2023-03-31T02:42:45.505Z,101042.56
2023-03-31T02:45:51.866Z,101036.78
2023-03-31T02:48:22.482Z,101034.88
2023-03-31T02:51:09.460Z,101036.53
2023-03-31T02:53:58.936Z,101039.41
2023-03-31T02:56:53.499Z,101037.00
2023-03-31T02:59:24.102Z,101043.09
2023-03-31T03:01:56.469Z,101038.44
2023-03-31T03:04:59.556Z,101044.16
2023-03-31T03:07:49.949Z,101045.94
2023-03-31T03:10:26.949Z,101045.41
2023-03-31T03:13:23.912Z,101040.22
2023-03-31T03:16:13.973Z,101034.53
2023-03-31T03:18:42.049Z,101032.25
2023-03-31T03:21:10.638Z,101011.97
2023-03-31T03:23:38.462Z,101013.25
2023-03-31T03:26:07.336Z,101013.69
2023-03-31T03:28:36.806Z,101016.28
2023-03-31T03:31:04.518Z,100999.44
2023-03-31T03:33:33.108Z,100994.69
2023-03-31T03:36:01.414Z,101003.25
2023-03-31T03:38:29.455Z,101015.06
2023-03-31T03:40:57.669Z,101010.56
2023-03-31T03:43:25.986Z,100999.56
2023-03-31T03:45:53.799Z,100998.53
2023-03-31T03:48:21.567Z,101001.06
2023-03-31T03:50:49.603Z,100990.28
2023-03-31T03:53:17.453Z,100989.44
2023-03-31T03:55:49.013Z,100985.44
2023-03-31T03:58:19.815Z,100980.38
2023-03-31T04:00:48.205Z,100971.94
2023-03-31T04:03:16.615Z,100969.09
2023-03-31T04:05:44.797Z,100974.47
2023-03-31T04:08:12.341Z,100983.97
2023-03-31T04:10:45.611Z,100980.69
2023-03-31T04:13:13.627Z,100989.69
2023-03-31T04:15:41.490Z,100985.47
2023-03-31T04:18:23.306Z,100978.25
2023-03-31T04:21:04.286Z,100988.78
2023-03-31T04:23:42.824Z,100981.94
2023-03-31T04:26:11.340Z,100985.41
2023-03-31T04:28:42.863Z,100976.25
2023-03-31T04:31:16.155Z,100977.63
2023-03-31T04:33:46.297Z,100974.66
2023-03-31T04:36:20.060Z,100973.00
2023-03-31T04:38:51.145Z,100972.59
2023-03-31T04:41:19.577Z,100964.69
2023-03-31T04:43:47.436Z,100954.28
2023-03-31T04:46:15.920Z,100944.16
2023-03-31T04:48:44.027Z,100956.97
2023-03-31T04:51:15.390Z,100950.66
2023-03-31T04:53:43.580Z,100957.75
2023-03-31T04:56:12.427Z,100967.09
2023-03-31T04:58:40.649Z,100963.50
2023-03-31T05:01:08.427Z,100954.44
2023-03-31T05:03:36.537Z,100972.53
2023-03-31T05:06:04.602Z,100991.19
2023-03-31T05:08:33.591Z,100977.69
2023-03-31T05:11:03.682Z,100957.66
2023-03-31T05:13:31.243Z,100955.09
2023-03-31T05:15:58.900Z,100962.06
2023-03-31T05:18:26.950Z,100955.38
2023-03-31T05:20:54.541Z,100952.66
2023-03-31T05:23:23.183Z,100967.00
2023-03-31T05:25:51.340Z,100942.78
2023-03-31T05:28:19.397Z,100944.88
2023-03-31T05:30:47.428Z,100952.28
2023-03-31T05:33:15.875Z,100933.13
2023-03-31T05:35:44.648Z,100932.91
2023-03-31T05:38:12.194Z,100938.63
2023-03-31T05:40:39.806Z,100938.63
2023-03-31T05:43:08.004Z,100937.97
2023-03-31T05:45:36.400Z,100931.84
2023-03-31T05:48:04.646Z,100936.63
2023-03-31T05:50:32.817Z,100938.94
2023-03-31T05:53:00.582Z,100949.84
2023-03-31T05:55:28.548Z,100950.03
2023-03-31T05:57:56.883Z,100951.19
2023-03-31T06:00:25.027Z,100941.38
2023-03-31T06:02:52.643Z,100921.97
2023-03-31T06:05:20.862Z,100916.13
2023-03-31T06:07:48.851Z,100924.66
2023-03-31T06:10:17.373Z,100938.25
2023-03-31T06:12:45.339Z,100929.03
2023-03-31T06:15:12.956Z,100923.41
2023-03-31T06:17:41.345Z,100928.56
2023-03-31T06:20:23.965Z,100920.72
2023-03-31T06:22:55.292Z,100920.28
2023-03-31T06:25:22.917Z,100911.59
2023-03-31T06:27:50.994Z,100907.44
2023-03-31T06:30:19.254Z,100901.31
2023-03-31T06:32:47.250Z,100896.31
2023-03-31T06:35:15.577Z,100888.44
2023-03-31T06:37:43.650Z,100885.94
2023-03-31T06:40:11.785Z,100876.00
2023-03-31T06:42:39.866Z,100882.00
2023-03-31T06:45:08.621Z,100883.56
2023-03-31T06:47:41.692Z,100871.28
2023-03-31T06:50:10.914Z,100871.06
2023-03-31T06:52:40.977Z,100879.22
2023-03-31T06:55:09.975Z,100871.78
2023-03-31T06:57:37.592Z,100864.00
2023-03-31T07:00:07.813Z,100865.78
2023-03-31T07:02:37.396Z,100868.31
2023-03-31T07:05:05.458Z,100880.16
2023-03-31T07:07:34.224Z,100873.19
2023-03-31T07:10:02.432Z,100868.41
2023-03-31T07:12:34.128Z,100848.03
2023-03-31T07:15:02.414Z,100845.44
2023-03-31T07:17:30.014Z,100852.63
2023-03-31T07:19:59.087Z,100839.91
2023-03-31T07:22:26.689Z,100845.56
2023-03-31T07:24:54.750Z,100852.63
2023-03-31T07:27:25.588Z,100854.19
2023-03-31T07:29:53.940Z,100852.75
2023-03-31T07:32:24.128Z,100853.69
2023-03-31T07:34:52.718Z,100839.69
2023-03-31T07:37:20.701Z,100838.50
2023-03-31T07:39:48.797Z,100847.47
2023-03-31T07:42:16.515Z,100842.44
2023-03-31T07:44:44.369Z,100839.44
2023-03-31T07:47:12.004Z,100848.09
2023-03-31T07:49:39.635Z,100844.84
2023-03-31T07:52:07.386Z,100839.44
2023-03-31T07:54:36.076Z,100840.88
2023-03-31T07:57:06.274Z,100834.03
2023-03-31T07:59:35.029Z,100820.25
2023-03-31T08:02:03.185Z,100819.16
2023-03-31T08:04:31.340Z,100817.63
2023-03-31T08:06:59.442Z,100826.25
2023-03-31T08:09:27.334Z,100824.94
2023-03-31T08:11:55.682Z,100831.41
2023-03-31T08:14:34.155Z,100838.84
2023-03-31T08:17:12.309Z,100831.75
2023-03-31T08:19:40.439Z,100830.81
2023-03-31T08:22:08.068Z,100829.88
2023-03-31T08:24:36.181Z,100825.66
2023-03-31T08:27:03.727Z,100810.66
2023-03-31T08:29:31.249Z,100806.69
2023-03-31T08:31:59.502Z,100816.50
2023-03-31T08:34:27.396Z,100813.28
2023-03-31T08:36:55.833Z,100809.47
2023-03-31T08:39:23.823Z,100817.59
2023-03-31T08:42:02.601Z,100819.13
2023-03-31T08:44:42.504Z,100801.44
2023-03-31T08:47:18.358Z,100789.44
2023-03-31T08:49:51.206Z,100784.59
2023-03-31T08:52:25.297Z,100780.69
2023-03-31T08:54:58.508Z,100785.31
2023-03-31T08:57:31.920Z,100786.66
2023-03-31T09:00:07.076Z,100786.00
2023-03-31T09:02:50.763Z,100797.69
2023-03-31T09:05:59.608Z,100814.63
2023-03-31T09:08:39.561Z,100810.47
2023-03-31T09:11:33.764Z,100811.63
2023-03-31T09:14:18.259Z,100812.50
2023-03-31T09:17:09.017Z,100811.13
2023-03-31T09:20:01.824Z,100808.25
2023-03-31T09:22:39.136Z,100796.69
2023-03-31T09:25:28.298Z,100772.72
2023-03-31T09:27:58.275Z,100768.66
2023-03-31T09:30:36.760Z,100764.38
2023-03-31T09:33:34.463Z,100751.22
2023-03-31T09:36:03.539Z,100746.47
2023-03-31T09:38:31.476Z,100747.13
2023-03-31T09:41:03.057Z,100745.91
2023-03-31T09:43:35.697Z,100739.03
2023-03-31T09:46:13.092Z,100743.13
2023-03-31T09:48:48.506Z,100741.53
2023-03-31T09:51:26.554Z,100748.53
2023-03-31T09:54:03.829Z,100742.16
2023-03-31T09:56:46.122Z,100732.31
2023-03-31T09:59:19.360Z,100712.22
2023-03-31T10:01:50.865Z,100714.22
2023-03-31T10:04:26.262Z,100707.34
2023-03-31T10:06:55.631Z,100702.47
2023-03-31T10:09:31.036Z,100699.28
2023-03-31T10:12:15.895Z,100698.25
2023-03-31T10:14:50.174Z,100685.91
2023-03-31T10:17:21.963Z,100675.03
2023-03-31T10:20:00.583Z,100664.34
2023-03-31T10:22:29.766Z,100671.84
2023-03-31T10:25:10.998Z,100670.03
2023-03-31T10:27:42.248Z,100669.03
2023-03-31T10:30:13.111Z,100663.84
2023-03-31T10:32:45.877Z,100657.16
2023-03-31T10:35:30.341Z,100665.78
2023-03-31T10:38:00.599Z,100668.84
2023-03-31T10:40:32.833Z,100680.44
2023-03-31T10:43:18.173Z,100671.31
2023-03-31T10:45:56.391Z,100672.69
2023-03-31T10:48:30.862Z,100671.13
2023-03-31T10:51:06.731Z,100668.19
2023-03-31T10:53:49.955Z,100651.44
2023-03-31T10:56:42.056Z,100652.72
2023-03-31T10:59:30.999Z,100632.66
2023-03-31T11:02:17.556Z,100618.91
2023-03-31T11:05:04.719Z,100615.50
2023-03-31T11:08:02.397Z,100604.25
2023-03-31T11:10:39.293Z,100586.13
2023-03-31T11:13:07.243Z,100577.97
2023-03-31T11:16:04.519Z,100577.16
2023-03-31T11:18:48.578Z,100575.84
2023-03-31T11:21:22.254Z,100570.69
2023-03-31T11:24:23.120Z,100563.84
2023-03-31T11:27:13.027Z,100542.16
2023-03-31T11:29:54.390Z,100519.06
2023-03-31T11:32:41.332Z,100529.19
2023-03-31T11:35:44.390Z,100515.59
2023-03-31T11:39:00.299Z,100518.59
2023-03-31T11:41:52.773Z,100501.44
2023-03-31T11:44:24.436Z,100484.38
2023-03-31T11:47:00.297Z,100477.97
2023-03-31T11:49:38.191Z,100476.31
2023-03-31T11:52:17.149Z,100464.94
2023-03-31T11:55:22.034Z,100451.31
2023-03-31T11:58:22.183Z,100449.75
2023-03-31T12:01:10.109Z,100446.81
2023-03-31T12:04:00.662Z,100441.69
2023-03-31T12:06:35.513Z,100425.59
2023-03-31T12:09:41.137Z,100429.06
2023-03-31T12:12:12.410Z,100404.69
2023-03-31T12:14:47.368Z,100413.94
2023-03-31T12:17:19.955Z,100417.31
2023-03-31T12:19:56.777Z,100418.59
2023-03-31T12:22:43.385Z,100411.19
2023-03-31T12:25:23.259Z,100399.56
2023-03-31T12:27:52.093Z,100380.75
2023-03-31T12:30:29.409Z,100391.22
2023-03-31T12:33:06.615Z,100389.69
2023-03-31T12:36:06.837Z,100379.94
2023-03-31T12:39:13.270Z,100375.53
2023-03-31T12:42:09.528Z,100362.44
2023-03-31T12:45:00.026Z,100355.28
2023-03-31T12:47:34.611Z,100354.84
2023-03-31T12:50:24.182Z,100349.03
2023-03-31T12:53:05.748Z,100340.56
2023-03-31T12:55:41.048Z,100335.91
2023-03-31T12:58:32.459Z,100336.47
2023-03-31T13:01:19.397Z,100330.06
2023-03-31T13:04:06.342Z,100322.72
2023-03-31T13:06:34.475Z,100317.09
2023-03-31T13:09:08.938Z,100308.47
2023-03-31T13:11:38.906Z,100295.94
2023-03-31T13:14:12.979Z,100293.91
2023-03-31T13:16:41.326Z,100286.03
2023-03-31T13:19:12.882Z,100285.69
2023-03-31T13:22:07.418Z,100275.84
2023-03-31T13:24:35.520Z,100261.09
2023-03-31T13:27:28.900Z,100257.22
2023-03-31T13:29:57.288Z,100259.25
2023-03-31T13:32:26.916Z,100264.09
2023-03-31T13:34:55.446Z,100259.13
2023-03-31T13:37:54.302Z,100257.84
2023-03-31T13:40:31.324Z,100256.97
2023-03-31T13:43:23.832Z,100242.22
2023-03-31T13:46:04.519Z,100222.59
2023-03-31T13:48:38.442Z,100224.59
2023-03-31T13:51:12.491Z,100214.66
2023-03-31T13:54:24.968Z,100203.34
2023-03-31T13:57:20.142Z,100216.28
2023-03-31T14:00:12.563Z,100206.00
2023-03-31T14:03:17.679Z,100203.25
2023-03-31T14:05:56.150Z,100195.34
2023-03-31T14:08:44.580Z,100205.94
2023-03-31T14:11:32.417Z,100193.72
2023-03-31T14:14:16.119Z,100190.91
2023-03-31T14:16:54.371Z,100181.97
2023-03-31T14:19:54.916Z,100180.97
2023-03-31T14:22:44.457Z,100178.13
2023-03-31T14:25:31.344Z,100167.81
2023-03-31T14:28:20.923Z,100158.19
2023-03-31T14:31:24.145Z,100158.13
2023-03-31T14:34:14.335Z,100155.84
2023-03-31T14:36:58.073Z,100145.22
2023-03-31T14:39:37.166Z,100141.53
2023-03-31T14:42:11.988Z,100138.13
2023-03-31T14:44:42.649Z,100121.66
2023-03-31T14:47:16.581Z,100110.88
2023-03-31T14:49:45.350Z,100105.88
2023-03-31T14:52:19.056Z,100099.44
2023-03-31T14:54:47.864Z,100097.09
2023-03-31T14:57:20.978Z,100094.78
2023-03-31T14:59:53.143Z,100085.16
2023-03-31T15:02:33.331Z,100083.84
2023-03-31T15:05:10.854Z,100086.19
2023-03-31T15:07:41.966Z,100073.41
2023-03-31T15:10:20.527Z,100070.25
2023-03-31T15:12:51.085Z,100062.97
2023-03-31T15:15:20.845Z,100056.81
2023-03-31T15:17:49.174Z,100051.00
2023-03-31T15:20:35.282Z,100044.56
2023-03-31T15:23:21.389Z,100052.97
2023-03-31T15:25:49.459Z,100051.69
2023-03-31T15:28:19.038Z,100063.91
2023-03-31T15:30:54.327Z,100069.88
2023-03-31T15:36:31.249Z,100069.88
2023-03-31T15:38:59.878Z,100064.06
2023-03-31T15:41:31.891Z,100064.56
2023-03-31T15:44:27.137Z,100054.53
2023-03-31T15:47:01.159Z,100054.34
2023-03-31T15:49:30.514Z,100059.50
2023-03-31T15:52:00.670Z,100058.50
2023-03-31T15:54:53.496Z,100045.53
2023-03-31T15:57:22.527Z,100051.88
2023-03-31T15:59:56.700Z,100045.56
2023-03-31T16:02:47.129Z,100053.47
2023-03-31T16:08:43.029Z,100055.63
2023-03-31T16:11:19.322Z,100047.59
2023-03-31T16:13:52.390Z,100045.56
2023-03-31T16:16:23.305Z,100036.38
2023-03-31T16:18:58.021Z,100034.97
2023-03-31T16:21:29.121Z,100037.06
2023-03-31T16:23:59.870Z,100043.88
2023-03-31T16:26:29.377Z,100045.66
2023-03-31T16:28:57.728Z,100040.13
2023-03-31T16:31:39.591Z,100041.66
2023-03-31T16:34:09.981Z,100042.53
2023-03-31T16:36:38.434Z,100030.94
2023-03-31T16:39:07.164Z,100029.22
2023-03-31T16:41:37.758Z,100025.69
2023-03-31T16:44:06.483Z,100028.94
2023-03-31T16:46:34.355Z,100024.47
2023-03-31T16:49:02.575Z,100015.66
2023-03-31T16:51:30.950Z,100030.03
2023-03-31T16:53:59.542Z,100028.75
2023-03-31T16:56:27.794Z,100029.72
2023-03-31T16:58:56.395Z,100016.84
2023-03-31T17:01:24.363Z,99995.88
2023-03-31T17:03:53.074Z,99974.56
2023-03-31T17:06:20.663Z,99977.31
2023-03-31T17:08:48.735Z,99981.38
2023-03-31T17:11:17.519Z,99970.50
2023-03-31T17:13:46.655Z,99971.13
2023-03-31T17:16:19.176Z,99955.94
2023-03-31T17:18:55.228Z,99951.09
2023-03-31T17:21:23.803Z,99961.69
2023-03-31T17:23:51.567Z,99974.91
2023-03-31T17:26:20.116Z,99973.63
2023-03-31T17:28:47.877Z,99973.78
2023-03-31T17:31:17.687Z,99973.09
2023-03-31T17:33:46.809Z,99961.38
2023-03-31T17:36:15.696Z,99968.81
2023-03-31T17:38:43.355Z,99960.88
2023-03-31T17:41:13.156Z,99969.78
2023-03-31T17:43:45.526Z,99965.03
2023-03-31T17:46:14.184Z,99959.94
2023-03-31T17:48:43.364Z,99965.47
2023-03-31T17:51:15.092Z,99963.72
2023-03-31T17:53:45.340Z,99954.00
2023-03-31T17:56:14.763Z,99961.31
2023-03-31T17:58:43.082Z,99954.53
2023-03-31T18:01:11.954Z,99965.03
2023-03-31T18:03:39.884Z,99961.53
2023-03-31T18:06:11.799Z,99968.69
2023-03-31T18:08:40.331Z,99971.91
2023-03-31T18:11:09.903Z,99968.13
2023-03-31T18:13:38.954Z,99971.66
2023-03-31T18:16:13.016Z,99979.34
2023-03-31T18:18:42.533Z,99984.97
2023-03-31T18:21:13.200Z,99980.66
2023-03-31T18:23:41.996Z,99983.66
2023-03-31T18:26:12.338Z,99984.91
2023-03-31T18:28:41.021Z,99993.19
2023-03-31T18:31:09.943Z,99996.22
2023-03-31T18:33:39.840Z,99991.50
2023-03-31T18:36:09.359Z,99989.25
2023-03-31T18:38:37.644Z,99988.41
2023-03-31T18:41:05.278Z,99992.03
2023-03-31T18:43:33.461Z,99985.09
2023-03-31T18:46:01.898Z,99986.44
2023-03-31T18:48:30.469Z,99992.81
2023-03-31T18:50:58.432Z,99990.22
2023-03-31T18:53:28.008Z,99982.19
2023-03-31T18:55:58.643Z,99977.50
2023-03-31T18:58:29.521Z,99977.72
2023-03-31T19:00:59.036Z,99974.94
2023-03-31T19:03:27.431Z,99978.28
2023-03-31T19:06:10.244Z,99970.81
2023-03-31T19:08:39.594Z,99975.41
2023-03-31T19:11:15.451Z,99974.56
2023-03-31T19:13:44.339Z,99970.28
2023-03-31T19:16:13.490Z,99969.13
2023-03-31T19:18:43.779Z,99964.31
2023-03-31T19:21:11.878Z,99964.84
2023-03-31T19:23:39.837Z,99965.78
2023-03-31T19:26:07.863Z,99963.88
2023-03-31T19:28:37.189Z,99962.22
2023-03-31T19:31:05.855Z,99959.94
2023-03-31T19:33:33.712Z,99960.41
2023-03-31T19:36:02.122Z,99960.34
2023-03-31T19:38:32.363Z,99962.44
2023-03-31T19:41:00.532Z,99961.78
2023-03-31T19:43:30.258Z,99961.78
2023-03-31T19:45:59.588Z,99955.41
2023-03-31T19:48:31.438Z,99954.59
2023-03-31T19:51:01.631Z,99941.00
2023-03-31T19:53:30.547Z,99943.88
2023-03-31T19:56:08.175Z,99942.78
2023-03-31T19:58:37.522Z,99949.19
2023-03-31T20:01:08.950Z,99951.97
2023-03-31T20:03:37.906Z,99951.72
2023-03-31T20:06:12.365Z,99950.31
2023-03-31T20:08:42.809Z,99946.72
2023-03-31T20:11:14.199Z,99941.72
2023-03-31T20:13:43.445Z,99940.47
2023-03-31T20:16:18.346Z,99933.41
2023-03-31T20:18:54.804Z,99936.59
2023-03-31T20:21:26.209Z,99927.88
2023-03-31T20:23:55.154Z,99927.75
2023-03-31T20:26:26.454Z,99921.63
2023-03-31T20:28:56.068Z,99923.31
2023-03-31T20:31:27.490Z,99925.13
2023-03-31T20:33:56.514Z,99929.41
2023-03-31T20:36:28.931Z,99922.75
2023-03-31T20:38:58.345Z,99918.31
2023-03-31T20:41:28.741Z,99916.25
2023-03-31T20:43:56.991Z,99908.03
2023-03-31T20:46:25.622Z,99912.66
2023-03-31T20:48:56.765Z,99922.75
2023-03-31T20:51:30.455Z,99925.97
2023-03-31T20:54:00.200Z,99926.66
2023-03-31T20:56:39.776Z,99926.09
2023-03-31T20:59:13.057Z,99920.97
2023-03-31T21:01:42.689Z,99927.63
2023-03-31T21:04:11.631Z,99928.72
2023-03-31T21:06:45.524Z,99923.44
2023-03-31T21:09:14.827Z,99919.84
2023-03-31T21:11:43.512Z,99924.00
2023-03-31T21:14:14.267Z,99929.53
2023-03-31T21:16:42.888Z,99931.09
2023-03-31T21:19:10.773Z,99928.84
2023-03-31T21:21:41.556Z,99928.47
2023-03-31T21:24:11.717Z,99915.81
2023-03-31T21:26:40.408Z,99921.78
2023-03-31T21:29:08.563Z,99905.97
2023-03-31T21:31:36.680Z,99906.53
2023-03-31T21:34:04.690Z,99896.44
2023-03-31T21:36:32.450Z,99894.22
2023-03-31T21:39:00.030Z,99882.28
2023-03-31T21:41:30.610Z,99888.41
2023-03-31T21:44:02.407Z,99881.06
2023-03-31T21:46:33.844Z,99880.19
2023-03-31T21:49:02.717Z,99867.28
2023-03-31T21:51:31.098Z,99858.97
2023-03-31T21:53:58.881Z,99854.81
2023-03-31T21:56:28.394Z,99854.13
2023-03-31T21:59:01.595Z,99849.69
2023-03-31T22:01:30.637Z,99854.00
2023-03-31T22:03:59.557Z,99860.09
2023-03-31T22:06:28.046Z,99855.09
2023-03-31T22:08:55.620Z,99858.59
2023-03-31T22:11:23.762Z,99857.47
2023-03-31T22:13:51.406Z,99849.81
2023-03-31T22:16:22.037Z,99846.63
2023-03-31T22:18:50.737Z,99836.78
2023-03-31T22:21:24.710Z,99842.06
2023-03-31T22:23:54.879Z,99841.94
2023-03-31T22:26:23.594Z,99844.66
2023-03-31T22:28:51.485Z,99852.72
2023-03-31T22:31:20.731Z,99859.91
2023-03-31T22:33:49.730Z,99859.06
2023-03-31T22:36:17.510Z,99861.41
2023-03-31T22:38:45.293Z,99861.91
2023-03-31T22:41:13.503Z,99860.56
2023-03-31T22:43:44.615Z,99862.22
2023-03-31T22:46:14.332Z,99866.56
2023-03-31T22:48:42.476Z,99866.47
2023-03-31T22:51:12.139Z,99870.34
2023-03-31T22:53:40.502Z,99873.72
2023-03-31T22:56:12.231Z,99876.06
2023-03-31T22:58:39.933Z,99863.66
2023-03-31T23:01:09.895Z,99864.69
2023-03-31T23:03:37.852Z,99863.81
2023-03-31T23:06:06.628Z,99865.66
2023-03-31T23:08:36.946Z,99865.09
2023-03-31T23:11:07.705Z,99863.81
2023-03-31T23:13:36.129Z,99860.63
2023-03-31T23:16:10.375Z,99855.13
2023-03-31T23:18:45.996Z,99847.63
2023-03-31T23:21:15.214Z,99857.38
2023-03-31T23:23:42.945Z,99850.81
2023-03-31T23:26:12.441Z,99842.69
2023-03-31T23:28:40.115Z,99844.50
2023-03-31T23:31:08.080Z,99835.13
2023-03-31T23:33:36.745Z,99834.72
2023-03-31T23:36:07.555Z,99836.91
2023-03-31T23:38:35.776Z,99827.25
2023-03-31T23:41:03.898Z,99822.31
2023-03-31T23:43:32.420Z,99823.25
2023-03-31T23:46:02.736Z,99839.28
2023-03-31T23:48:31.448Z,99829.84
2023-03-31T23:50:59.077Z,99831.06
2023-03-31T23:53:27.551Z,99824.97
2023-03-31T23:55:57.911Z,99822.75
2023-03-31T23:58:26.667Z,99817.31
